createdAt,value
2018-09-23T00:00:08.552Z,2.30
2018-09-23T00:02:36.907Z,2.07
2018-09-23T00:05:05.164Z,2.50
2018-09-23T00:07:33.440Z,2.00
2018-09-23T00:10:01.630Z,2.50
2018-09-23T00:12:29.906Z,2.03
2018-09-23T00:14:58.160Z,2.33
2018-09-23T00:17:26.421Z,2.13
2018-09-23T00:19:54.672Z,2.57
2018-09-23T00:22:22.963Z,2.17
2018-09-23T00:24:51.198Z,2.30
2018-09-23T00:27:19.446Z,2.80
2018-09-23T00:29:49.583Z,3.10
2018-09-23T00:32:19.309Z,3.20
2018-09-23T00:34:47.657Z,2.63
2018-09-23T00:37:15.960Z,3.20
2018-09-23T00:39:44.231Z,2.37
2018-09-23T00:42:12.507Z,3.40
2018-09-23T00:44:40.790Z,2.73
2018-09-23T00:47:09.029Z,3.10
2018-09-23T00:49:37.307Z,3.33
2018-09-23T00:52:05.621Z,4.00
2018-09-23T00:54:33.882Z,2.90
2018-09-23T00:57:02.161Z,2.60
2018-09-23T00:59:30.463Z,3.10
2018-09-23T01:01:58.724Z,3.20
2018-09-23T01:04:27.029Z,2.83
2018-09-23T01:06:55.279Z,2.73
2018-09-23T01:09:23.762Z,3.20
2018-09-23T01:11:52.040Z,3.30
2018-09-23T01:14:21.019Z,2.43
2018-09-23T01:16:49.408Z,2.50
2018-09-23T01:19:17.704Z,2.20
2018-09-23T01:21:47.080Z,2.40
2018-09-23T01:24:15.370Z,2.60
2018-09-23T01:26:43.651Z,2.70
2018-09-23T01:29:11.911Z,2.40
2018-09-23T01:31:40.189Z,3.10
2018-09-23T01:34:08.488Z,2.80
2018-09-23T01:36:36.751Z,2.47
2018-09-23T01:39:06.347Z,2.70
2018-09-23T01:41:34.651Z,2.60
2018-09-23T01:44:03.002Z,2.60
2018-09-23T01:46:31.444Z,2.57
2018-09-23T01:48:59.683Z,2.43
2018-09-23T01:51:28.027Z,2.60
2018-09-23T01:53:56.312Z,2.93
2018-09-23T01:56:24.651Z,2.73
2018-09-23T01:58:53.373Z,1.90
2018-09-23T02:01:21.665Z,1.80
2018-09-23T02:03:49.915Z,2.00
2018-09-23T02:06:18.207Z,2.47
2018-09-23T02:08:46.502Z,1.70
2018-09-23T02:11:14.743Z,2.53
2018-09-23T02:13:43.054Z,1.90
2018-09-23T02:16:11.310Z,1.57
2018-09-23T02:18:39.722Z,1.70
2018-09-23T02:21:08.162Z,1.40
2018-09-23T02:23:36.378Z,2.13
2018-09-23T02:26:04.910Z,1.73
2018-09-23T02:28:33.173Z,1.73
2018-09-23T02:31:01.959Z,1.57
2018-09-23T02:33:30.280Z,1.70
2018-09-23T02:35:58.537Z,1.30
2018-09-23T02:38:27.562Z,1.93
2018-09-23T02:40:55.789Z,1.93
2018-09-23T02:43:24.109Z,1.20
2018-09-23T02:45:52.413Z,2.00
2018-09-23T02:48:20.695Z,1.93
2018-09-23T02:50:49.078Z,1.33
2018-09-23T02:53:17.295Z,1.80
2018-09-23T02:55:45.664Z,1.83
2018-09-23T02:58:14.902Z,1.67
2018-09-23T03:00:43.251Z,1.80
2018-09-23T03:03:11.539Z,2.10
2018-09-23T03:05:39.816Z,1.83
2018-09-23T03:08:08.044Z,1.50
2018-09-23T03:10:36.265Z,2.00
2018-09-23T03:13:04.541Z,2.33
2018-09-23T03:15:32.787Z,1.70
2018-09-23T03:18:01.097Z,2.40
2018-09-23T03:20:29.369Z,1.90
2018-09-23T03:22:57.796Z,2.37
2018-09-23T03:25:26.196Z,2.10
2018-09-23T03:27:54.485Z,2.50
2018-09-23T03:30:22.760Z,2.07
2018-09-23T03:32:51.055Z,1.73
2018-09-23T03:35:19.339Z,1.90
2018-09-23T03:37:47.614Z,1.93
2018-09-23T03:40:22.256Z,2.20
2018-09-23T03:42:50.525Z,1.83
2018-09-23T03:45:18.762Z,1.80
2018-09-23T03:47:48.057Z,2.03
2018-09-23T03:50:22.803Z,2.33
2018-09-23T03:52:51.138Z,2.40
2018-09-23T03:55:19.388Z,2.83
2018-09-23T03:57:47.642Z,2.70
2018-09-23T04:00:15.967Z,3.20
2018-09-23T04:02:44.215Z,3.03
2018-09-23T04:05:12.491Z,3.20
2018-09-23T04:07:40.736Z,3.20
2018-09-23T04:10:09.018Z,3.00
2018-09-23T04:12:37.344Z,2.97
2018-09-23T04:15:05.614Z,3.80
2018-09-23T04:17:33.899Z,4.73
2018-09-23T04:20:02.189Z,3.97
2018-09-23T04:22:35.096Z,4.17
2018-09-23T04:25:03.561Z,3.93
2018-09-23T04:27:31.838Z,4.37
2018-09-23T04:30:00.150Z,4.43
2018-09-23T04:32:28.440Z,4.73
2018-09-23T04:34:56.760Z,4.80
2018-09-23T04:37:25.048Z,5.10
2018-09-23T04:39:53.296Z,5.50
2018-09-23T04:42:21.591Z,5.10
2018-09-23T04:44:49.964Z,5.20
2018-09-23T04:47:18.451Z,5.00
2018-09-23T04:49:46.843Z,4.37
2018-09-23T04:52:15.163Z,6.07
2018-09-23T04:54:43.433Z,6.00
2018-09-23T04:57:11.681Z,5.97
2018-09-23T04:59:40.004Z,6.40
2018-09-23T05:02:08.261Z,5.53
2018-09-23T05:04:36.542Z,5.90
2018-09-23T05:07:04.821Z,5.77
2018-09-23T05:09:33.085Z,6.00
2018-09-23T05:12:01.360Z,6.10
2018-09-23T05:14:29.627Z,5.67
2018-09-23T05:16:57.911Z,6.40
2018-09-23T05:19:26.509Z,5.03
2018-09-23T05:21:54.766Z,6.27
2018-09-23T05:24:23.030Z,5.73
2018-09-23T05:26:51.371Z,5.30
2018-09-23T05:29:20.177Z,5.77
2018-09-23T05:31:48.425Z,5.10
2018-09-23T05:34:16.673Z,5.57
2018-09-23T05:36:44.934Z,5.17
2018-09-23T05:39:13.194Z,4.60
2018-09-23T05:41:41.550Z,5.07
2018-09-23T05:44:10.420Z,5.53
2018-09-23T05:46:38.920Z,3.83
2018-09-23T05:49:07.710Z,4.07
2018-09-23T05:51:36.127Z,4.23
2018-09-23T05:54:04.424Z,3.97
2018-09-23T05:56:32.754Z,3.00
2018-09-23T05:59:01.023Z,2.40
2018-09-23T06:01:29.300Z,2.60
2018-09-23T06:03:57.625Z,2.07
2018-09-23T06:06:25.889Z,1.63
2018-09-23T06:08:54.213Z,2.47
2018-09-23T06:11:22.421Z,1.80
2018-09-23T06:13:50.670Z,1.90
2018-09-23T06:16:18.910Z,1.97
2018-09-23T06:18:47.367Z,1.90
2018-09-23T06:21:16.038Z,2.00
2018-09-23T06:23:44.298Z,2.00
2018-09-23T06:26:12.580Z,1.80
2018-09-23T06:28:40.866Z,1.50
2018-09-23T06:31:09.246Z,1.70
2018-09-23T06:33:37.479Z,1.90
2018-09-23T06:36:05.875Z,1.67
2018-09-23T06:38:34.272Z,1.90
2018-09-23T06:41:02.544Z,1.70
2018-09-23T06:43:30.857Z,1.67
2018-09-23T06:45:59.218Z,1.43
2018-09-23T06:48:27.549Z,1.60
2018-09-23T06:50:55.847Z,1.40
2018-09-23T06:53:24.251Z,1.90
2018-09-23T06:55:52.603Z,2.30
2018-09-23T06:58:20.907Z,1.50
2018-09-23T07:00:50.389Z,1.70
2018-09-23T07:03:18.702Z,1.50
2018-09-23T07:05:47.021Z,2.10
2018-09-23T07:08:15.342Z,1.80
2018-09-23T07:10:43.619Z,1.50
2018-09-23T07:13:11.909Z,1.70
2018-09-23T07:15:40.909Z,1.77
2018-09-23T07:18:09.339Z,2.43
2018-09-23T07:20:37.595Z,1.90
2018-09-23T07:23:05.909Z,1.70
2018-09-23T07:25:35.113Z,1.73
2018-09-23T07:28:03.399Z,1.50
2018-09-23T07:30:31.662Z,1.67
2018-09-23T07:33:00.175Z,1.23
2018-09-23T07:35:28.600Z,1.37
2018-09-23T07:37:56.956Z,1.20
2018-09-23T07:40:25.291Z,1.63
2018-09-23T07:42:53.764Z,1.37
2018-09-23T07:45:22.001Z,1.30
2018-09-23T07:47:50.385Z,1.60
2018-09-23T07:50:18.799Z,2.10
2018-09-23T07:52:47.057Z,1.83
2018-09-23T07:55:15.357Z,1.70
2018-09-23T07:57:43.782Z,1.37
2018-09-23T08:00:12.086Z,1.60
2018-09-23T08:02:41.139Z,1.13
2018-09-23T08:05:09.430Z,1.33
2018-09-23T08:07:44.917Z,1.30
2018-09-23T08:10:13.407Z,1.87
2018-09-23T08:12:41.739Z,1.03
2018-09-23T08:15:11.516Z,1.20
2018-09-23T08:17:39.838Z,1.27
2018-09-23T08:20:08.149Z,1.30
2018-09-23T08:22:36.326Z,1.10
2018-09-23T08:25:04.935Z,1.20
2018-09-23T08:27:33.184Z,2.30
2018-09-23T08:30:01.540Z,1.17
2018-09-23T08:32:29.841Z,1.60
2018-09-23T08:34:58.134Z,1.20
2018-09-23T08:37:26.432Z,1.43
2018-09-23T08:39:54.779Z,0.93
2018-09-23T08:42:23.057Z,1.20
2018-09-23T08:44:51.390Z,1.20
2018-09-23T08:47:19.827Z,1.20
2018-09-23T08:49:48.139Z,1.27
2018-09-23T08:52:16.748Z,1.20
2018-09-23T08:54:45.038Z,0.93
2018-09-23T08:57:13.347Z,1.50
2018-09-23T08:59:41.695Z,1.40
2018-09-23T09:02:09.978Z,1.30
2018-09-23T09:04:38.851Z,1.47
2018-09-23T09:07:07.127Z,1.30
2018-09-23T09:09:35.421Z,1.07
2018-09-23T09:12:03.678Z,0.93
2018-09-23T09:14:31.993Z,1.33
2018-09-23T09:17:00.363Z,1.30
2018-09-23T09:19:30.071Z,1.00
2018-09-23T09:21:58.394Z,1.40
2018-09-23T09:24:26.715Z,1.03
2018-09-23T09:26:55.053Z,1.17
2018-09-23T09:29:23.733Z,1.30
2018-09-23T09:31:52.041Z,1.30
2018-09-23T09:34:20.324Z,1.70
2018-09-23T09:36:48.598Z,1.10
2018-09-23T09:39:16.882Z,0.90
2018-09-23T09:41:45.338Z,0.90
2018-09-23T09:44:13.658Z,1.13
2018-09-23T09:46:41.922Z,0.80
2018-09-23T09:49:10.267Z,1.10
2018-09-23T09:51:38.567Z,1.20
2018-09-23T09:54:06.845Z,0.87
2018-09-23T09:56:35.176Z,0.80
2018-09-23T09:59:03.450Z,1.00
2018-09-23T10:01:31.694Z,0.90
2018-09-23T10:04:00.039Z,1.03
2018-09-23T10:06:28.279Z,0.83
2018-09-23T10:08:56.566Z,1.20
2018-09-23T10:11:24.980Z,1.03
2018-09-23T10:13:53.250Z,1.83
2018-09-23T10:16:21.535Z,0.90
2018-09-23T10:18:49.809Z,0.97
2018-09-23T10:21:18.082Z,0.83
2018-09-23T10:23:46.545Z,0.80
2018-09-23T10:26:14.857Z,0.80
2018-09-23T10:28:43.116Z,0.90
2018-09-23T10:31:11.532Z,1.20
2018-09-23T10:33:39.841Z,1.73
2018-09-23T10:36:08.194Z,0.90
2018-09-23T10:38:36.679Z,1.10
2018-09-23T10:41:04.914Z,0.80
2018-09-23T10:43:33.334Z,0.97
2018-09-23T10:46:01.611Z,0.90
2018-09-23T10:48:30.120Z,1.17
2018-09-23T10:50:58.559Z,0.80
2018-09-23T10:53:27.106Z,0.87
2018-09-23T10:55:55.452Z,1.07
2018-09-23T10:58:23.953Z,0.93
2018-09-23T11:00:53.054Z,0.90
2018-09-23T11:03:21.425Z,0.90
2018-09-23T11:05:49.820Z,0.60
2018-09-23T11:08:18.199Z,1.10
2018-09-23T11:10:46.492Z,0.80
2018-09-23T11:13:14.793Z,0.90
2018-09-23T11:15:43.696Z,0.77
2018-09-23T11:18:12.032Z,1.20
2018-09-23T11:20:40.269Z,1.00
2018-09-23T11:23:08.849Z,0.90
2018-09-23T11:25:37.103Z,1.10
2018-09-23T11:28:05.831Z,0.97
2018-09-23T11:30:34.179Z,0.90
2018-09-23T11:33:02.405Z,0.83
2018-09-23T11:35:30.681Z,0.73
2018-09-23T11:37:59.003Z,0.80
2018-09-23T11:40:27.367Z,0.67
2018-09-23T11:45:34.838Z,1.03
2018-09-23T11:48:03.196Z,1.30
2018-09-23T11:50:31.499Z,0.60
2018-09-23T11:52:59.857Z,0.90
2018-09-23T11:55:28.119Z,0.80
2018-09-23T11:57:56.512Z,0.90
2018-09-23T12:00:24.801Z,0.90
2018-09-23T12:02:53.059Z,0.70
2018-09-23T12:05:21.407Z,0.90
2018-09-23T12:07:49.701Z,0.90
2018-09-23T12:10:18.142Z,0.80
2018-09-23T12:12:46.446Z,1.00
2018-09-23T12:15:15.226Z,0.53
2018-09-23T12:17:43.535Z,0.50
2018-09-23T12:20:11.896Z,0.50
2018-09-23T12:22:40.200Z,0.70
2018-09-23T12:25:08.853Z,0.90
2018-09-23T12:27:37.245Z,0.77
2018-09-23T12:30:05.697Z,0.83
2018-09-23T12:32:33.927Z,1.00
2018-09-23T12:35:02.198Z,23.23
2018-09-23T12:37:30.462Z,1.90
2018-09-23T12:39:58.854Z,2.00
2018-09-23T12:42:27.071Z,0.60
2018-09-23T12:44:55.415Z,0.60
2018-09-23T12:47:24.663Z,0.70
2018-09-23T12:49:53.005Z,0.60
2018-09-23T12:52:21.323Z,0.77
2018-09-23T12:54:50.067Z,0.80
2018-09-23T12:57:18.323Z,0.50
2018-09-23T12:59:46.660Z,0.80
2018-09-23T13:02:14.932Z,0.70
2018-09-23T13:04:43.252Z,0.73
2018-09-23T13:07:11.517Z,0.87
2018-09-23T13:09:39.766Z,0.60
2018-09-23T13:12:08.242Z,0.83
2018-09-23T13:14:36.473Z,0.80
2018-09-23T13:17:04.782Z,0.93
2018-09-23T13:19:33.179Z,0.60
2018-09-23T13:22:01.579Z,1.17
2018-09-23T13:24:29.879Z,0.90
2018-09-23T13:26:58.151Z,0.80
2018-09-23T13:29:26.414Z,1.50
2018-09-23T13:31:54.796Z,0.70
2018-09-23T13:34:23.053Z,0.60
2018-09-23T13:36:51.326Z,0.70
2018-09-23T13:39:19.782Z,0.70
2018-09-23T13:41:48.074Z,1.03
2018-09-23T13:44:16.373Z,1.10
2018-09-23T13:46:44.647Z,0.77
2018-09-23T13:49:12.882Z,0.60
2018-09-23T13:51:41.414Z,0.70
2018-09-23T13:54:09.681Z,0.77
2018-09-23T13:56:37.994Z,0.43
2018-09-23T13:59:06.351Z,0.77
2018-09-23T14:01:34.656Z,0.70
2018-09-23T14:04:02.958Z,0.80
2018-09-23T14:06:31.271Z,0.50
2018-09-23T14:08:59.556Z,0.57
2018-09-23T14:11:27.826Z,0.60
2018-09-23T14:13:57.144Z,1.00
2018-09-23T14:16:25.522Z,0.83
2018-09-23T14:18:53.899Z,1.00
2018-09-23T14:21:22.914Z,1.03
2018-09-23T14:23:51.408Z,0.83
2018-09-23T14:26:19.792Z,0.83
2018-09-23T14:28:48.704Z,0.60
2018-09-23T14:31:17.109Z,1.00
2018-09-23T14:33:45.422Z,0.90
2018-09-23T14:36:13.709Z,0.77
2018-09-23T14:38:41.943Z,1.00
2018-09-23T14:41:10.270Z,0.90
2018-09-23T14:43:38.904Z,0.60
2018-09-23T14:46:07.556Z,0.90
2018-09-23T14:48:36.386Z,0.97
2018-09-23T14:51:08.559Z,1.00
2018-09-23T14:53:37.426Z,0.90
2018-09-23T14:56:05.847Z,1.17
2018-09-23T14:58:34.420Z,0.70
2018-09-23T15:01:02.730Z,0.60
2018-09-23T15:03:31.031Z,0.97
2018-09-23T15:05:59.456Z,0.80
2018-09-23T15:08:27.777Z,0.80
2018-09-23T15:10:56.571Z,0.60
2018-09-23T15:13:24.911Z,0.90
2018-09-23T15:15:53.165Z,1.10
2018-09-23T15:18:21.518Z,0.60
2018-09-23T15:20:49.877Z,1.63
2018-09-23T15:23:18.089Z,1.70
2018-09-23T15:25:46.456Z,1.03
2018-09-23T15:28:14.737Z,0.77
2018-09-23T15:30:43.016Z,1.00
2018-09-23T15:33:11.297Z,0.70
2018-09-23T15:35:39.666Z,0.80
2018-09-23T15:38:08.054Z,0.80
2018-09-23T15:40:36.647Z,0.90
2018-09-23T15:43:04.879Z,0.80
2018-09-23T15:45:33.226Z,1.20
2018-09-23T15:48:01.502Z,0.80
2018-09-23T15:50:29.879Z,0.63
2018-09-23T15:52:58.166Z,1.10
2018-09-23T15:55:26.647Z,0.70
2018-09-23T15:57:55.916Z,0.73
2018-09-23T16:00:24.150Z,0.60
2018-09-23T16:02:52.732Z,0.60
2018-09-23T16:05:21.140Z,0.50
2018-09-23T16:07:49.416Z,0.70
2018-09-23T16:10:17.645Z,0.80
2018-09-23T16:12:46.272Z,1.00
2018-09-23T16:15:14.629Z,1.00
2018-09-23T16:17:46.649Z,0.80
2018-09-23T16:20:15.221Z,0.90
2018-09-23T16:22:44.185Z,0.70
2018-09-23T16:25:13.696Z,0.80
2018-09-23T16:27:44.775Z,1.30
2018-09-23T16:30:14.505Z,0.90
2018-09-23T16:32:42.901Z,0.67
2018-09-23T16:35:12.738Z,0.50
2018-09-23T16:37:41.212Z,0.70
2018-09-23T16:40:09.870Z,0.60
2018-09-23T16:42:38.459Z,0.50
2018-09-23T16:45:07.120Z,0.70
2018-09-23T16:47:36.446Z,0.90
2018-09-23T16:50:04.894Z,0.97
2018-09-23T16:52:35.546Z,0.80
2018-09-23T16:55:04.238Z,1.10
2018-09-23T16:57:34.538Z,1.20
2018-09-23T17:00:03.136Z,0.67
2018-09-23T17:02:32.488Z,0.80
2018-09-23T17:05:01.293Z,1.10
2018-09-23T17:07:33.311Z,0.80
2018-09-23T17:10:04.063Z,0.63
2018-09-23T17:12:34.374Z,0.77
2018-09-23T17:15:02.848Z,0.93
2018-09-23T17:17:31.260Z,0.63
2018-09-23T17:20:00.041Z,0.77
2018-09-23T17:22:33.203Z,0.63
2018-09-23T17:25:03.039Z,1.20
2018-09-23T17:27:32.728Z,0.83
2018-09-23T17:30:05.288Z,0.90
2018-09-23T17:32:39.744Z,0.70
2018-09-23T17:35:08.250Z,0.60
2018-09-23T17:37:36.946Z,0.60
2018-09-23T17:40:05.966Z,0.63
2018-09-23T17:42:34.568Z,0.80
2018-09-23T17:45:03.111Z,0.90
2018-09-23T17:47:31.711Z,0.73
2018-09-23T17:50:05.263Z,0.60
2018-09-23T17:52:33.784Z,0.70
2018-09-23T17:55:02.270Z,0.70
2018-09-23T17:57:30.478Z,0.80
2018-09-23T17:59:58.702Z,0.83
2018-09-23T18:02:27.360Z,0.63
2018-09-23T18:04:55.595Z,0.90
2018-09-23T18:07:24.494Z,0.73
2018-09-23T18:09:52.790Z,0.70
2018-09-23T18:12:21.031Z,0.53
2018-09-23T18:14:49.257Z,1.07
2018-09-23T18:17:17.506Z,0.50
2018-09-23T18:19:45.903Z,0.60
2018-09-23T18:22:14.143Z,0.70
2018-09-23T18:24:42.594Z,0.67
2018-09-23T18:27:10.818Z,0.60
2018-09-23T18:29:39.079Z,0.60
2018-09-23T18:32:07.341Z,0.60
2018-09-23T18:34:35.631Z,0.90
2018-09-23T18:37:03.947Z,0.67
2018-09-23T18:39:32.182Z,0.97
2018-09-23T18:42:00.385Z,0.60
2018-09-23T18:44:28.752Z,0.80
2018-09-23T18:46:57.141Z,0.90
2018-09-23T18:49:25.369Z,1.00
2018-09-23T18:51:53.635Z,0.93
2018-09-23T18:54:27.311Z,0.67
2018-09-23T18:56:55.602Z,1.10
2018-09-23T18:59:23.984Z,0.70
2018-09-23T19:01:52.197Z,1.20
2018-09-23T19:04:20.483Z,0.40
2018-09-23T19:06:48.740Z,1.67
2018-09-23T19:09:17.047Z,0.90
2018-09-23T19:11:45.402Z,0.70
2018-09-23T19:14:13.695Z,0.80
2018-09-23T19:16:42.267Z,0.73
2018-09-23T19:19:10.554Z,1.07
2018-09-23T19:21:38.881Z,2.20
2018-09-23T19:24:07.127Z,1.30
2018-09-23T19:26:35.376Z,0.80
2018-09-23T19:29:03.653Z,0.60
2018-09-23T19:31:32.859Z,0.70
2018-09-23T19:34:01.114Z,0.83
2018-09-23T19:36:29.495Z,0.67
2018-09-23T19:38:57.884Z,1.23
2018-09-23T19:41:26.146Z,0.60
2018-09-23T19:43:54.439Z,0.87
2018-09-23T19:46:22.845Z,0.63
2018-09-23T19:48:51.057Z,0.70
2018-09-23T19:51:19.423Z,0.87
2018-09-23T19:53:47.643Z,0.90
2018-09-23T19:56:15.867Z,1.00
2018-09-23T19:58:44.160Z,0.73
2018-09-23T20:01:12.394Z,0.60
2018-09-23T20:03:40.630Z,1.60
2018-09-23T20:06:09.029Z,0.60
2018-09-23T20:08:37.359Z,0.70
2018-09-23T20:11:06.670Z,0.60
2018-09-23T20:13:35.006Z,0.80
2018-09-23T20:16:03.257Z,0.50
2018-09-23T20:18:31.511Z,0.70
2018-09-23T20:20:59.780Z,0.80
2018-09-23T20:23:28.035Z,0.60
2018-09-23T20:25:56.244Z,0.60
2018-09-23T20:28:24.575Z,0.40
2018-09-23T20:30:52.775Z,0.57
2018-09-23T20:33:21.064Z,0.37
2018-09-23T20:35:49.401Z,0.60
2018-09-23T20:38:17.761Z,0.90
2018-09-23T20:40:46.081Z,0.60
2018-09-23T20:43:14.374Z,1.90
2018-09-23T20:45:42.631Z,1.03
2018-09-23T20:48:10.949Z,0.80
2018-09-23T20:50:39.225Z,0.83
2018-09-23T20:53:07.516Z,0.80
2018-09-23T20:55:35.933Z,0.60
2018-09-23T20:58:04.664Z,0.60
2018-09-23T21:00:33.062Z,0.60
2018-09-23T21:03:01.491Z,0.70
2018-09-23T21:05:29.850Z,0.70
2018-09-23T21:07:58.164Z,0.90
2018-09-23T21:10:26.585Z,0.90
2018-09-23T21:12:54.869Z,0.90
2018-09-23T21:15:23.182Z,0.63
2018-09-23T21:17:51.423Z,0.60
2018-09-23T21:20:19.716Z,0.80
2018-09-23T21:22:47.933Z,1.00
2018-09-23T21:25:16.187Z,1.00
2018-09-23T21:27:44.458Z,0.67
2018-09-23T21:30:12.748Z,1.37
2018-09-23T21:32:41.182Z,0.97
2018-09-23T21:35:09.748Z,0.70
2018-09-23T21:37:38.053Z,0.80
2018-09-23T21:40:06.620Z,0.70
2018-09-23T21:42:34.926Z,0.70
2018-09-23T21:45:03.274Z,0.40
2018-09-23T21:47:31.517Z,0.70
2018-09-23T21:49:59.809Z,0.50
2018-09-23T21:52:28.085Z,0.57
2018-09-23T21:54:56.333Z,0.97
2018-09-23T21:57:24.576Z,0.70
2018-09-23T21:59:52.794Z,0.80
2018-09-23T22:02:21.019Z,0.60
2018-09-23T22:04:49.258Z,0.80
2018-09-23T22:07:17.528Z,0.60
2018-09-23T22:09:45.779Z,0.50
2018-09-23T22:12:14.068Z,0.47
2018-09-23T22:14:42.354Z,0.50
2018-09-23T22:17:10.576Z,0.50
2018-09-23T22:19:38.905Z,0.60
2018-09-23T22:22:07.228Z,0.60
2018-09-23T22:24:35.531Z,0.60
2018-09-23T22:27:03.804Z,0.50
2018-09-23T22:29:32.182Z,0.80
2018-09-23T22:32:00.546Z,0.60
2018-09-23T22:34:28.749Z,0.53
2018-09-23T22:36:57.024Z,0.60
2018-09-23T22:39:25.282Z,0.60
2018-09-23T22:41:53.595Z,0.70
2018-09-23T22:44:21.815Z,0.80
2018-09-23T22:46:50.173Z,0.70
2018-09-23T22:49:18.385Z,1.00
2018-09-23T22:51:46.647Z,1.00
2018-09-23T22:54:14.957Z,0.63
2018-09-23T22:56:43.232Z,0.90
2018-09-23T22:59:11.581Z,0.77
2018-09-23T23:01:39.892Z,0.53
2018-09-23T23:04:08.167Z,0.57
2018-09-23T23:06:36.735Z,0.70
2018-09-23T23:09:07.598Z,0.57
2018-09-23T23:11:35.821Z,0.70
2018-09-23T23:14:04.126Z,0.40
2018-09-23T23:16:32.635Z,0.60
2018-09-23T23:19:00.913Z,0.60
2018-09-23T23:21:29.170Z,0.70
2018-09-23T23:23:57.407Z,0.60
2018-09-23T23:26:25.629Z,0.83
2018-09-23T23:28:53.912Z,0.63
2018-09-23T23:31:22.162Z,0.63
2018-09-23T23:33:50.382Z,0.77
2018-09-23T23:36:18.609Z,0.63
2018-09-23T23:38:46.863Z,0.80
2018-09-23T23:41:15.138Z,0.80
2018-09-23T23:43:43.366Z,0.60
2018-09-23T23:46:11.609Z,0.90
2018-09-23T23:48:39.879Z,0.50
2018-09-23T23:51:08.173Z,0.63
2018-09-23T23:56:11.006Z,0.63
2018-09-23T23:58:39.222Z,0.60
